createdAt,value
2019-02-09T00:01:07.315Z,100153.81
2019-02-09T00:03:36.758Z,100151.88
2019-02-09T00:06:06.783Z,100155.80
2019-02-09T00:08:36.244Z,100151.55
2019-02-09T00:11:06.386Z,100153.30
2019-02-09T00:13:35.876Z,100151.94
2019-02-09T00:16:06.370Z,100146.88
2019-02-09T00:18:36.071Z,100151.61
2019-02-09T00:21:06.417Z,100145.80
2019-02-09T00:23:36.011Z,100145.13
2019-02-09T00:26:05.914Z,100143.23
2019-02-09T00:28:35.331Z,100136.29
2019-02-09T00:31:05.154Z,100146.11
2019-02-09T00:33:34.940Z,100143.71
2019-02-09T00:36:05.748Z,100143.19
2019-02-09T00:38:35.143Z,100143.74
2019-02-09T00:41:04.652Z,100153.30
2019-02-09T00:43:34.125Z,100156.00
2019-02-09T00:46:03.617Z,100150.69
2019-02-09T00:48:33.074Z,100144.69
2019-02-09T00:51:02.564Z,100147.36
2019-02-09T00:53:31.940Z,100149.89
2019-02-09T00:56:01.604Z,100148.66
2019-02-09T00:58:31.102Z,100143.53
2019-02-09T01:01:00.562Z,100143.47
2019-02-09T01:03:29.985Z,100141.88
2019-02-09T01:05:59.388Z,100139.13
2019-02-09T01:08:28.847Z,100144.55
2019-02-09T01:10:58.370Z,100141.10
2019-02-09T01:13:27.747Z,100135.46
2019-02-09T01:15:57.199Z,100136.73
2019-02-09T01:18:26.719Z,100132.59
2019-02-09T01:20:56.254Z,100131.20
2019-02-09T01:23:25.624Z,100129.02
2019-02-09T01:25:55.106Z,100126.80
2019-02-09T01:28:24.584Z,100121.91
2019-02-09T01:30:53.990Z,100121.70
2019-02-09T01:33:23.491Z,100123.55
2019-02-09T01:35:52.951Z,100128.30
2019-02-09T01:38:22.319Z,100118.93
2019-02-09T01:40:51.931Z,100129.77
2019-02-09T01:43:21.414Z,100121.67
2019-02-09T01:49:14.163Z,100118.93
2019-02-09T01:51:43.546Z,100119.95
2019-02-09T01:54:13.027Z,100118.15
2019-02-09T01:56:42.615Z,100118.31
2019-02-09T01:59:12.004Z,100116.09
2019-02-09T02:01:41.407Z,100115.33
2019-02-09T02:04:11.184Z,100122.67
2019-02-09T02:06:40.647Z,100118.28
2019-02-09T02:09:10.035Z,100125.28
2019-02-09T02:11:39.726Z,100117.27
2019-02-09T02:14:09.224Z,100124.55
2019-02-09T02:16:38.588Z,100121.65
2019-02-09T02:19:08.254Z,100122.52
2019-02-09T02:21:37.822Z,100123.95
2019-02-09T02:27:12.370Z,100118.46
2019-02-09T02:29:41.877Z,100124.47
2019-02-09T02:32:11.359Z,100117.05
2019-02-09T02:34:40.753Z,100112.63
2019-02-09T02:37:10.180Z,100116.59
2019-02-09T02:39:39.749Z,100120.77
2019-02-09T02:42:09.215Z,100114.50
2019-02-09T02:44:38.656Z,100118.44
2019-02-09T02:47:08.039Z,100116.59
2019-02-09T02:49:37.510Z,100114.96
2019-02-09T02:52:07.119Z,100123.05
2019-02-09T02:54:36.592Z,100118.53
2019-02-09T02:57:06.060Z,100120.38
2019-02-09T02:59:35.564Z,100123.16
2019-02-09T03:02:05.511Z,100122.84
2019-02-09T03:04:34.970Z,100127.71
2019-02-09T03:07:05.227Z,100123.59
2019-02-09T03:09:34.600Z,100127.41
2019-02-09T03:12:04.178Z,100127.05
2019-02-09T03:14:34.076Z,100123.02
2019-02-09T03:17:03.552Z,100122.52
2019-02-09T03:19:32.927Z,100124.16
2019-02-09T03:22:02.448Z,100125.13
2019-02-09T03:24:31.921Z,100130.92
2019-02-09T03:27:01.391Z,100133.37
2019-02-09T03:29:30.819Z,100134.39
2019-02-09T03:32:00.220Z,100140.16
2019-02-09T03:34:29.681Z,100136.25
2019-02-09T03:36:59.362Z,100136.59
2019-02-09T03:39:28.723Z,100138.70
2019-02-09T03:41:58.106Z,100138.83
2019-02-09T03:44:27.614Z,100142.13
2019-02-09T03:46:57.087Z,100136.04
2019-02-09T03:49:26.470Z,100139.20
2019-02-09T03:51:55.942Z,100143.31
2019-02-09T03:54:25.418Z,100142.80
2019-02-09T03:56:55.182Z,100142.01
2019-02-09T03:59:24.588Z,100144.25
2019-02-09T04:01:54.060Z,100142.36
2019-02-09T04:04:23.538Z,100143.55
2019-02-09T04:06:53.235Z,100141.78
2019-02-09T04:09:23.522Z,100145.30
2019-02-09T04:11:52.978Z,100145.85
2019-02-09T04:14:22.404Z,100143.27
2019-02-09T04:16:51.795Z,100144.99
2019-02-09T04:19:21.487Z,100148.56
2019-02-09T04:21:51.206Z,100146.09
2019-02-09T04:24:20.593Z,100151.08
2019-02-09T04:26:49.993Z,100147.50
2019-02-09T04:29:19.523Z,100146.59
2019-02-09T04:31:48.977Z,100152.55
2019-02-09T04:34:18.357Z,100149.47
2019-02-09T04:36:47.917Z,100151.96
2019-02-09T04:39:17.394Z,100148.22
2019-02-09T04:41:46.844Z,100156.91
2019-02-09T04:44:16.332Z,100153.53
2019-02-09T04:46:45.721Z,100152.66
2019-02-09T04:49:15.180Z,100153.31
2019-02-09T04:51:44.603Z,100153.66
2019-02-09T04:54:14.091Z,100153.31
2019-02-09T04:56:43.559Z,100159.44
2019-02-09T04:59:12.980Z,100158.09
2019-02-09T05:01:42.351Z,100165.06
2019-02-09T05:04:11.816Z,100159.81
2019-02-09T05:06:41.312Z,100159.35
2019-02-09T05:09:10.703Z,100161.14
2019-02-09T05:11:40.093Z,100159.84
2019-02-09T05:14:09.618Z,100159.95
2019-02-09T05:16:39.144Z,100156.27
2019-02-09T05:19:08.630Z,100164.30
2019-02-09T05:21:38.065Z,100164.88
2019-02-09T05:24:07.576Z,100165.22
2019-02-09T05:26:37.055Z,100165.60
2019-02-09T05:29:06.526Z,100166.44
2019-02-09T05:31:36.079Z,100165.22
2019-02-09T05:34:05.557Z,100169.14
2019-02-09T05:36:35.008Z,100167.28
2019-02-09T05:39:06.037Z,100162.99
2019-02-09T05:41:35.487Z,100166.92
2019-02-09T05:44:05.055Z,100166.27
2019-02-09T05:46:35.263Z,100163.08
2019-02-09T05:49:04.749Z,100168.74
2019-02-09T05:51:34.257Z,100167.58
2019-02-09T05:54:03.656Z,100177.06
2019-02-09T05:56:33.236Z,100176.50
2019-02-09T05:59:02.774Z,100173.13
2019-02-09T06:01:32.738Z,100174.88
2019-02-09T06:04:02.195Z,100178.89
2019-02-09T06:06:31.617Z,100179.40
2019-02-09T06:09:01.099Z,100175.77
2019-02-09T06:11:30.487Z,100180.09
2019-02-09T06:13:59.982Z,100183.54
2019-02-09T06:16:30.779Z,100180.91
2019-02-09T06:19:00.657Z,100183.13
2019-02-09T06:21:30.317Z,100183.52
2019-02-09T06:24:00.120Z,100187.88
2019-02-09T06:26:29.605Z,100189.83
2019-02-09T06:28:59.050Z,100189.21
2019-02-09T06:31:28.443Z,100187.77
2019-02-09T06:33:57.928Z,100190.59
2019-02-09T06:36:27.432Z,100188.77
2019-02-09T06:38:56.809Z,100186.44
2019-02-09T06:41:26.197Z,100189.46
2019-02-09T06:43:55.701Z,100185.83
2019-02-09T06:46:25.156Z,100191.91
2019-02-09T06:48:54.605Z,100191.34
2019-02-09T06:51:24.103Z,100190.26
2019-02-09T06:53:53.488Z,100193.02
2019-02-09T06:56:22.924Z,100194.80
2019-02-09T06:58:52.548Z,100202.33
2019-02-09T07:01:22.048Z,100197.61
2019-02-09T07:03:51.482Z,100196.55
2019-02-09T07:06:20.929Z,100197.74
2019-02-09T07:08:51.151Z,100198.05
2019-02-09T07:11:20.705Z,100192.75
2019-02-09T07:13:50.291Z,100194.86
2019-02-09T07:16:19.688Z,100199.52
2019-02-09T07:18:49.181Z,100201.37
2019-02-09T07:21:18.704Z,100196.67
2019-02-09T07:23:48.322Z,100207.48
2019-02-09T07:26:17.736Z,100206.53
2019-02-09T07:28:47.244Z,100208.42
2019-02-09T07:31:16.648Z,100203.08
2019-02-09T07:33:46.253Z,100206.06
2019-02-09T07:36:16.069Z,100204.67
2019-02-09T07:38:45.447Z,100201.16
2019-02-09T07:41:14.871Z,100199.34
2019-02-09T07:43:44.619Z,100196.08
2019-02-09T07:46:14.413Z,100204.91
2019-02-09T07:48:43.773Z,100195.92
2019-02-09T07:51:13.844Z,100188.07
2019-02-09T07:53:43.308Z,100194.23
2019-02-09T07:56:12.868Z,100190.59
2019-02-09T07:58:42.473Z,100198.15
2019-02-09T08:01:11.829Z,100195.57
2019-02-09T08:03:41.339Z,100204.25
2019-02-09T08:06:10.955Z,100198.69
2019-02-09T08:08:40.316Z,100200.92
2019-02-09T08:11:09.913Z,100204.55
2019-02-09T08:13:39.361Z,100210.05
2019-02-09T08:16:09.001Z,100206.50
2019-02-09T08:18:39.505Z,100205.07
2019-02-09T08:21:09.140Z,100204.13
2019-02-09T08:23:38.554Z,100201.14
2019-02-09T08:26:07.942Z,100208.34
2019-02-09T08:28:37.482Z,100208.76
2019-02-09T08:31:07.055Z,100207.03
2019-02-09T08:33:36.423Z,100205.11
2019-02-09T08:36:05.835Z,100201.22
2019-02-09T08:38:35.306Z,100201.30
2019-02-09T08:41:04.754Z,100194.47
2019-02-09T08:43:34.314Z,100200.30
2019-02-09T08:46:03.804Z,100198.23
2019-02-09T08:48:33.308Z,100195.61
2019-02-09T08:51:06.578Z,100197.83
2019-02-09T08:53:35.937Z,100192.64
2019-02-09T08:56:05.746Z,100192.81
2019-02-09T08:58:35.258Z,100196.96
2019-02-09T09:01:05.372Z,100200.55
2019-02-09T09:03:34.786Z,100195.00
2019-02-09T09:06:04.758Z,100200.57
2019-02-09T09:08:34.230Z,100183.06
2019-02-09T09:11:03.719Z,100183.33
2019-02-09T09:13:33.299Z,100185.09
2019-02-09T09:16:06.481Z,100184.02
2019-02-09T09:18:35.980Z,100183.16
2019-02-09T09:21:06.026Z,100186.77
2019-02-09T09:23:35.431Z,100185.25
2019-02-09T09:26:05.142Z,100184.48
2019-02-09T09:28:34.857Z,100185.64
2019-02-09T09:31:04.547Z,100183.16
2019-02-09T09:33:34.111Z,100178.31
2019-02-09T09:36:03.709Z,100179.84
2019-02-09T09:38:33.078Z,100184.39
2019-02-09T09:41:02.457Z,100177.83
2019-02-09T09:43:33.908Z,100173.04
2019-02-09T09:46:03.236Z,100171.42
2019-02-09T09:48:32.616Z,100167.28
2019-02-09T09:51:02.136Z,100170.44
2019-02-09T09:53:31.615Z,100162.86
2019-02-09T09:56:01.065Z,100158.22
2019-02-09T09:58:30.790Z,100161.08
2019-02-09T10:01:00.185Z,100157.44
2019-02-09T10:03:29.677Z,100150.26
2019-02-09T10:05:59.189Z,100152.55
2019-02-09T10:08:28.554Z,100146.57
2019-02-09T10:10:58.015Z,100141.50
2019-02-09T10:13:27.666Z,100143.57
2019-02-09T10:15:57.042Z,100139.05
2019-02-09T10:18:26.515Z,100140.03
2019-02-09T10:20:56.020Z,100138.81
2019-02-09T10:23:25.417Z,100129.84
2019-02-09T10:25:54.820Z,100135.86
2019-02-09T10:28:24.581Z,100129.84
2019-02-09T10:30:54.041Z,100125.78
2019-02-09T10:33:23.449Z,100124.74
2019-02-09T10:35:52.873Z,100124.97
2019-02-09T10:38:23.376Z,100126.70
2019-02-09T10:40:52.876Z,100125.78
2019-02-09T10:43:22.534Z,100114.91
2019-02-09T10:45:51.908Z,100120.70
2019-02-09T10:48:21.392Z,100124.34
2019-02-09T10:50:51.061Z,100123.42
2019-02-09T10:53:20.505Z,100112.42
2019-02-09T10:55:50.054Z,100112.42
2019-02-09T10:58:19.657Z,100105.63
2019-02-09T11:00:55.511Z,100106.15
2019-02-09T11:03:25.234Z,100102.33
2019-02-09T11:05:54.831Z,100097.88
2019-02-09T11:08:24.219Z,100091.76
2019-02-09T11:10:53.840Z,100098.19
2019-02-09T11:13:23.650Z,100090.28
2019-02-09T11:15:53.124Z,100092.27
2019-02-09T11:18:22.689Z,100085.74
2019-02-09T11:20:52.173Z,100084.49
2019-02-09T11:23:21.840Z,100085.56
2019-02-09T11:25:51.324Z,100083.58
2019-02-09T11:28:20.718Z,100083.08
2019-02-09T11:30:50.224Z,100082.59
2019-02-09T11:33:19.598Z,100081.16
2019-02-09T11:35:48.975Z,100079.29
2019-02-09T11:38:18.511Z,100074.98
2019-02-09T11:40:47.959Z,100072.27
2019-02-09T11:43:17.341Z,100068.63
2019-02-09T11:45:46.768Z,100070.94
2019-02-09T11:48:16.232Z,100059.47
2019-02-09T11:50:45.688Z,100058.92
2019-02-09T11:53:15.445Z,100054.71
2019-02-09T11:55:44.831Z,100054.44
2019-02-09T11:58:14.617Z,100042.95
2019-02-09T12:00:50.569Z,100043.97
2019-02-09T12:03:20.154Z,100040.74
2019-02-09T12:05:49.530Z,100036.48
2019-02-09T12:08:19.023Z,100035.45
2019-02-09T12:10:48.393Z,100025.02
2019-02-09T12:13:17.892Z,100015.23
2019-02-09T12:15:47.437Z,100018.43
2019-02-09T12:18:16.831Z,100021.45
2019-02-09T12:20:46.213Z,100016.92
2019-02-09T12:23:15.770Z,100008.80
2019-02-09T12:25:45.992Z,100009.20
2019-02-09T12:28:15.683Z,100017.59
2019-02-09T12:30:45.294Z,100010.75
2019-02-09T12:33:22.770Z,100012.86
2019-02-09T12:35:46.109Z,100010.53
2019-02-09T12:38:15.533Z,100002.67
2019-02-09T12:40:44.943Z,100000.27
2019-02-09T12:43:14.419Z,99993.02
2019-02-09T12:45:43.972Z,99994.27
2019-02-09T12:48:13.683Z,99982.01
2019-02-09T12:50:43.241Z,99986.11
2019-02-09T12:53:12.903Z,99981.86
2019-02-09T12:55:42.295Z,99983.80
2019-02-09T12:58:11.859Z,99980.44
2019-02-09T13:00:41.465Z,99981.76
2019-02-09T13:03:17.019Z,99990.75
2019-02-09T13:05:47.396Z,99990.43
2019-02-09T13:08:17.383Z,99989.77
2019-02-09T13:10:46.890Z,99982.09
2019-02-09T13:13:16.861Z,99979.28
2019-02-09T13:15:46.563Z,99975.42
2019-02-09T13:18:19.501Z,99973.30
2019-02-09T13:20:48.999Z,99976.92
2019-02-09T13:23:18.360Z,99972.61
2019-02-09T13:25:47.789Z,99978.53
2019-02-09T13:28:18.641Z,99981.55
2019-02-09T13:30:48.081Z,99977.55
2019-02-09T13:33:17.557Z,99974.64
2019-02-09T13:35:47.089Z,99973.94
2019-02-09T13:38:16.475Z,99975.98
2019-02-09T13:40:45.924Z,99975.84
2019-02-09T13:43:15.555Z,99973.54
2019-02-09T13:45:48.249Z,99974.85
2019-02-09T13:48:17.648Z,99974.97
2019-02-09T13:50:47.345Z,99967.69
2019-02-09T13:53:16.956Z,99965.58
2019-02-09T13:55:46.472Z,99961.70
2019-02-09T13:58:15.938Z,99969.11
2019-02-09T14:00:45.427Z,99980.20
2019-02-09T14:03:14.911Z,99971.35
2019-02-09T14:05:44.519Z,99971.27
2019-02-09T14:08:13.898Z,99970.35
2019-02-09T14:10:43.363Z,99973.75
2019-02-09T14:13:14.521Z,99975.66
2019-02-09T14:15:44.270Z,99974.35
2019-02-09T14:18:13.772Z,99974.98
2019-02-09T14:20:43.400Z,99975.27
2019-02-09T14:23:12.911Z,99973.66
2019-02-09T14:25:42.470Z,99970.72
2019-02-09T14:28:12.368Z,99969.05
2019-02-09T14:30:42.479Z,99973.66
2019-02-09T14:33:12.773Z,99973.05
2019-02-09T14:35:43.369Z,99963.97
2019-02-09T14:38:12.865Z,99971.73
2019-02-09T14:40:43.019Z,99970.23
2019-02-09T14:43:12.866Z,99961.02
2019-02-09T14:45:44.078Z,99965.59
2019-02-09T14:48:13.904Z,99965.23
2019-02-09T14:50:43.592Z,99965.88
2019-02-09T14:53:14.133Z,99971.35
2019-02-09T14:55:44.152Z,99972.34
2019-02-09T14:58:14.368Z,99965.19
2019-02-09T15:00:49.298Z,99962.23
2019-02-09T15:03:25.955Z,99961.48
2019-02-09T15:05:49.961Z,99965.03
2019-02-09T15:08:19.516Z,99955.09
2019-02-09T15:10:49.066Z,99954.20
2019-02-09T15:13:19.891Z,99960.06
2019-02-09T15:15:56.227Z,99961.48
2019-02-09T15:18:25.735Z,99963.72
2019-02-09T15:20:58.001Z,99965.95
2019-02-09T15:23:27.436Z,99959.48
2019-02-09T15:25:56.900Z,99963.09
2019-02-09T15:28:26.363Z,99962.69
2019-02-09T15:30:56.404Z,99959.13
2019-02-09T15:33:26.077Z,99963.80
2019-02-09T15:35:55.606Z,99966.07
2019-02-09T15:38:25.040Z,99967.98
2019-02-09T15:40:54.465Z,99962.91
2019-02-09T15:43:27.760Z,99959.19
2019-02-09T15:46:00.184Z,99961.61
2019-02-09T15:48:29.766Z,99969.17
2019-02-09T15:50:59.312Z,99971.86
2019-02-09T15:53:28.935Z,99967.25
2019-02-09T15:55:58.360Z,99974.02
2019-02-09T15:58:27.888Z,99970.44
2019-02-09T16:00:57.368Z,99969.53
2019-02-09T16:03:26.854Z,99971.88
2019-02-09T16:05:56.338Z,99982.64
2019-02-09T16:08:25.834Z,99981.04
2019-02-09T16:10:55.469Z,99982.16
2019-02-09T16:13:24.872Z,99974.44
2019-02-09T16:15:54.365Z,99975.44
2019-02-09T16:18:23.969Z,99975.98
2019-02-09T16:20:53.391Z,99974.22
2019-02-09T16:23:22.839Z,99973.55
2019-02-09T16:25:52.480Z,99978.31
2019-02-09T16:28:22.094Z,99991.13
2019-02-09T16:30:51.579Z,99988.92
2019-02-09T16:33:20.997Z,99992.48
2019-02-09T16:35:50.452Z,99993.47
2019-02-09T16:38:20.146Z,99991.06
2019-02-09T16:40:49.667Z,99996.99
2019-02-09T16:43:20.334Z,99993.86
2019-02-09T16:45:49.971Z,99995.04
2019-02-09T16:48:19.436Z,100000.19
2019-02-09T16:50:48.900Z,99999.83
2019-02-09T16:53:18.458Z,100003.88
2019-02-09T16:55:48.158Z,99999.75
2019-02-09T16:58:17.565Z,100003.92
2019-02-09T17:00:47.420Z,100001.84
2019-02-09T17:03:16.928Z,100005.55
2019-02-09T17:05:46.355Z,100001.67
2019-02-09T17:08:15.837Z,100004.56
2019-02-09T17:10:45.923Z,100008.07
2019-02-09T17:13:15.429Z,100012.45
2019-02-09T17:15:44.900Z,100015.92
2019-02-09T17:18:14.318Z,100015.84
2019-02-09T17:20:43.790Z,100016.70
2019-02-09T17:23:13.634Z,100019.80
2019-02-09T17:25:43.162Z,100025.56
2019-02-09T17:28:12.755Z,100024.81
2019-02-09T17:30:42.803Z,100023.02
2019-02-09T17:33:13.647Z,100025.89
2019-02-09T17:35:43.077Z,100030.00
2019-02-09T17:38:12.590Z,100029.73
2019-02-09T17:40:47.173Z,100033.58
2019-02-09T17:43:16.609Z,100036.67
2019-02-09T17:45:51.879Z,100036.78
2019-02-09T17:48:21.409Z,100035.37
2019-02-09T17:50:50.859Z,100034.37
2019-02-09T17:53:20.244Z,100036.50
2019-02-09T17:55:50.102Z,100035.98
2019-02-09T17:58:19.592Z,100038.66
2019-02-09T18:01:08.023Z,100040.31
2019-02-09T18:03:37.438Z,100035.50
2019-02-09T18:06:07.042Z,100035.75
2019-02-09T18:08:36.508Z,100041.11
2019-02-09T18:11:06.441Z,100041.19
2019-02-09T18:13:36.078Z,100041.04
2019-02-09T18:16:06.006Z,100039.16
2019-02-09T18:18:35.392Z,100037.38
2019-02-09T18:21:04.938Z,100035.50
2019-02-09T18:23:34.465Z,100034.99
2019-02-09T18:26:03.900Z,100039.54
2019-02-09T18:28:33.429Z,100038.09
2019-02-09T18:31:02.915Z,100038.09
2019-02-09T18:33:32.442Z,100038.51
2019-02-09T18:36:01.881Z,100040.94
2019-02-09T18:38:31.292Z,100040.67
2019-02-09T18:41:00.750Z,100038.38
2019-02-09T18:43:30.524Z,100041.45
2019-02-09T18:46:00.003Z,100047.57
2019-02-09T18:48:29.533Z,100043.71
2019-02-09T18:50:58.978Z,100039.32
2019-02-09T18:53:28.426Z,100049.89
2019-02-09T18:55:58.108Z,100044.09
2019-02-09T18:58:27.649Z,100051.38
2019-02-09T19:00:57.153Z,100052.62
2019-02-09T19:03:26.542Z,100049.92
2019-02-09T19:05:55.989Z,100055.23
2019-02-09T19:08:25.616Z,100054.13
2019-02-09T19:10:55.051Z,100058.42
2019-02-09T19:13:24.448Z,100059.76
2019-02-09T19:15:53.977Z,100064.17
2019-02-09T19:18:23.459Z,100070.67
2019-02-09T19:20:55.690Z,100077.33
2019-02-09T19:23:25.114Z,100070.88
2019-02-09T19:25:54.594Z,100075.69
2019-02-09T19:28:24.125Z,100078.92
2019-02-09T19:30:53.594Z,100082.59
2019-02-09T19:33:22.987Z,100078.37
2019-02-09T19:35:52.479Z,100082.81
2019-02-09T19:38:21.999Z,100086.67
2019-02-09T19:40:51.618Z,100089.56
2019-02-09T19:43:20.999Z,100089.06
2019-02-09T19:45:50.923Z,100096.52
2019-02-09T19:48:20.437Z,100093.20
2019-02-09T19:50:49.872Z,100088.78
2019-02-09T19:53:19.299Z,100095.73
2019-02-09T19:55:48.750Z,100097.06
2019-02-09T19:58:18.279Z,100096.72
2019-02-09T20:00:48.072Z,100099.56
2019-02-09T20:03:17.464Z,100107.47
2019-02-09T20:05:46.928Z,100108.33
2019-02-09T20:08:16.397Z,100114.44
2019-02-09T20:10:45.832Z,100117.92
2019-02-09T20:13:15.448Z,100118.05
2019-02-09T20:15:45.019Z,100110.78
2019-02-09T20:18:14.451Z,100111.23
2019-02-09T20:20:47.349Z,100112.22
2019-02-09T20:23:15.451Z,100112.20
2019-02-09T20:25:44.865Z,100114.47
2019-02-09T20:28:14.243Z,100118.02
2019-02-09T20:30:44.031Z,100109.82
2019-02-09T20:33:13.569Z,100112.03
2019-02-09T20:35:43.047Z,100113.39
2019-02-09T20:38:12.482Z,100115.65
2019-02-09T20:40:47.877Z,100124.44
2019-02-09T20:43:18.765Z,100130.62
2019-02-09T20:45:48.283Z,100127.97
2019-02-09T20:48:17.732Z,100120.06
2019-02-09T20:50:47.228Z,100125.70
2019-02-09T20:53:16.609Z,100121.37
2019-02-09T20:55:46.059Z,100113.25
2019-02-09T20:58:16.112Z,100113.69
2019-02-09T21:00:45.530Z,100112.84
2019-02-09T21:03:14.920Z,100114.61
2019-02-09T21:05:44.408Z,100110.77
2019-02-09T21:08:13.885Z,100110.41
2019-02-09T21:10:43.467Z,100110.50
2019-02-09T21:13:13.001Z,100112.61
2019-02-09T21:15:42.418Z,100109.13
2019-02-09T21:18:12.023Z,100111.27
2019-02-09T21:20:41.483Z,100112.19
2019-02-09T21:23:10.966Z,100102.77
2019-02-09T21:25:42.140Z,100102.69
2019-02-09T21:28:11.612Z,100111.40
2019-02-09T21:30:41.409Z,100106.98
2019-02-09T21:33:10.871Z,100105.20
2019-02-09T21:35:44.021Z,100110.00
2019-02-09T21:38:11.760Z,100109.22
2019-02-09T21:40:41.259Z,100114.87
2019-02-09T21:43:10.925Z,100118.31
2019-02-09T21:45:45.485Z,100120.04
2019-02-09T21:48:11.480Z,100127.01
2019-02-09T21:50:41.263Z,100122.66
2019-02-09T21:53:10.744Z,100125.67
2019-02-09T21:55:40.194Z,100133.50
2019-02-09T21:58:09.842Z,100133.95
2019-02-09T22:00:41.498Z,100138.75
2019-02-09T22:03:12.689Z,100147.90
2019-02-09T22:05:42.307Z,100147.49
2019-02-09T22:08:19.387Z,100147.41
2019-02-09T22:10:44.825Z,100152.09
2019-02-09T22:13:14.592Z,100154.38
2019-02-09T22:15:44.103Z,100157.05
2019-02-09T22:18:13.638Z,100152.36
2019-02-09T22:20:43.250Z,100155.84
2019-02-09T22:23:12.660Z,100159.35
2019-02-09T22:25:42.154Z,100161.98
2019-02-09T22:28:11.642Z,100164.66
2019-02-09T22:30:41.165Z,100162.94
2019-02-09T22:33:10.961Z,100166.87
2019-02-09T22:35:40.417Z,100166.91
2019-02-09T22:38:10.022Z,100159.56
2019-02-09T22:40:39.754Z,100160.43
2019-02-09T22:43:09.404Z,100169.55
2019-02-09T22:45:38.867Z,100157.47
2019-02-09T22:48:09.678Z,100165.73
2019-02-09T22:50:41.515Z,100171.84
2019-02-09T22:53:11.113Z,100170.55
2019-02-09T22:55:40.690Z,100164.52
2019-02-09T22:58:10.070Z,100171.46
2019-02-09T23:01:05.756Z,100161.06
2019-02-09T23:03:42.593Z,100158.48
2019-02-09T23:06:42.885Z,100161.06
2019-02-09T23:09:16.017Z,100151.55
2019-02-09T23:11:45.466Z,100139.84
2019-02-09T23:14:15.162Z,100135.50
2019-02-09T23:16:44.615Z,100132.88
2019-02-09T23:19:14.012Z,100131.19
2019-02-09T23:21:43.505Z,100131.20
2019-02-09T23:24:13.018Z,100120.83
2019-02-09T23:26:42.461Z,100119.53
2019-02-09T23:29:11.973Z,100116.48
2019-02-09T23:31:41.451Z,100116.09
2019-02-09T23:34:12.136Z,100119.15
2019-02-09T23:36:41.623Z,100113.92
2019-02-09T23:39:11.105Z,100108.74
2019-02-09T23:41:40.551Z,100112.63
2019-02-09T23:44:10.043Z,100108.28
2019-02-09T23:46:39.495Z,100107.86
2019-02-09T23:49:08.981Z,100103.12
2019-02-09T23:51:38.443Z,100100.08
2019-02-09T23:54:07.847Z,100094.48
2019-02-09T23:56:37.294Z,100098.34
2019-02-09T23:59:06.801Z,100101.41
